createdAt,value
2022-11-09T00:00:45.950Z,98.77
2022-11-09T00:03:47.957Z,98.89
2022-11-09T00:07:09.566Z,99.11
2022-11-09T00:10:27.355Z,98.99
2022-11-09T00:13:29.007Z,99.23
2022-11-09T00:16:30.945Z,98.83
2022-11-09T00:19:32.989Z,99.00
2022-11-09T00:22:34.767Z,99.06
2022-11-09T00:25:36.497Z,99.03
2022-11-09T00:28:38.196Z,99.02
2022-11-09T00:31:39.946Z,99.04
2022-11-09T00:34:41.597Z,98.83
2022-11-09T00:37:43.270Z,98.62
2022-11-09T00:40:44.856Z,97.59
2022-11-09T00:43:47.504Z,97.39
2022-11-09T00:46:49.433Z,97.44
2022-11-09T00:49:51.250Z,97.31
2022-11-09T00:52:53.148Z,97.14
2022-11-09T00:55:57.804Z,97.23
2022-11-09T00:58:59.498Z,97.85
2022-11-09T01:02:01.087Z,98.07
2022-11-09T01:05:02.934Z,98.61
2022-11-09T01:08:04.469Z,98.83
2022-11-09T01:11:08.023Z,98.91
2022-11-09T01:14:10.880Z,98.72
2022-11-09T01:17:12.530Z,98.76
2022-11-09T01:20:15.021Z,99.02
2022-11-09T01:23:18.441Z,99.15
2022-11-09T01:26:21.348Z,99.06
2022-11-09T01:29:23.046Z,98.89
2022-11-09T01:32:24.620Z,98.94
2022-11-09T01:35:26.398Z,98.65
2022-11-09T01:38:27.963Z,98.61
2022-11-09T01:41:29.701Z,98.88
2022-11-09T01:44:32.255Z,99.06
2022-11-09T01:47:34.828Z,98.81
2022-11-09T01:50:44.663Z,98.60
2022-11-09T01:53:48.625Z,98.42
2022-11-09T01:56:54.235Z,98.00
2022-11-09T02:00:00.558Z,98.46
2022-11-09T02:03:06.522Z,98.63
2022-11-09T02:06:10.557Z,98.64
2022-11-09T02:09:31.832Z,98.61
2022-11-09T02:12:34.984Z,98.94
2022-11-09T02:15:41.408Z,99.10
2022-11-09T02:18:57.720Z,99.44
2022-11-09T02:21:59.398Z,99.48
2022-11-09T02:25:01.074Z,99.65
2022-11-09T02:28:02.990Z,99.82
2022-11-09T02:31:04.934Z,99.88
2022-11-09T02:34:13.757Z,99.92
2022-11-09T02:37:45.654Z,99.75
2022-11-09T02:40:50.313Z,99.32
2022-11-09T02:43:52.756Z,99.05
2022-11-09T02:46:54.378Z,98.96
2022-11-09T02:49:58.004Z,99.04
2022-11-09T02:52:59.625Z,98.98
2022-11-09T02:56:02.331Z,98.86
2022-11-09T02:59:04.187Z,98.96
2022-11-09T03:02:05.722Z,98.97
2022-11-09T03:05:07.949Z,99.01
2022-11-09T03:08:09.565Z,98.96
2022-11-09T03:11:11.233Z,98.95
2022-11-09T03:14:12.854Z,98.67
2022-11-09T03:17:14.512Z,98.77
2022-11-09T03:20:16.262Z,99.12
2022-11-09T03:23:18.163Z,99.02
2022-11-09T03:26:20.598Z,98.94
2022-11-09T03:29:22.316Z,99.24
2022-11-09T03:32:24.479Z,99.45
2022-11-09T03:35:26.334Z,99.55
2022-11-09T03:38:27.918Z,99.50
2022-11-09T03:41:29.613Z,99.56
2022-11-09T03:44:31.485Z,99.33
2022-11-09T03:47:33.133Z,99.69
2022-11-09T03:50:40.482Z,99.62
2022-11-09T03:53:42.195Z,99.23
2022-11-09T03:56:43.944Z,99.14
2022-11-09T03:59:45.502Z,98.99
2022-11-09T04:02:47.533Z,99.14
2022-11-09T04:05:49.265Z,99.50
2022-11-09T04:08:51.811Z,99.51
2022-11-09T04:11:53.503Z,99.58
2022-11-09T04:14:55.138Z,99.58
2022-11-09T04:18:01.775Z,99.54
2022-11-09T04:21:03.527Z,99.83
2022-11-09T04:24:05.777Z,99.97
2022-11-09T04:27:07.471Z,99.75
2022-11-09T04:30:09.568Z,99.67
2022-11-09T04:33:11.244Z,99.54
2022-11-09T04:36:12.878Z,99.78
2022-11-09T04:39:14.604Z,99.79
2022-11-09T04:42:16.236Z,99.87
2022-11-09T04:45:18.163Z,99.77
2022-11-09T04:48:19.657Z,99.65
2022-11-09T04:51:21.474Z,99.14
2022-11-09T04:54:23.236Z,98.32
2022-11-09T04:57:24.793Z,97.68
2022-11-09T05:00:27.365Z,98.12
2022-11-09T05:03:29.045Z,98.72
2022-11-09T05:06:33.664Z,98.91
2022-11-09T05:09:35.322Z,98.17
2022-11-09T05:12:37.046Z,97.68
2022-11-09T05:15:39.417Z,98.03
2022-11-09T05:18:41.078Z,99.52
2022-11-09T05:21:42.814Z,100.00
2022-11-09T05:24:44.322Z,99.41
2022-11-09T05:27:45.896Z,98.58
2022-11-09T05:30:47.717Z,98.56
2022-11-09T05:33:51.269Z,98.79
2022-11-09T05:36:52.963Z,98.99
2022-11-09T05:39:54.538Z,98.99
2022-11-09T05:42:56.781Z,99.17
2022-11-09T05:46:02.442Z,98.69
2022-11-09T05:49:07.156Z,98.71
2022-11-09T05:52:08.800Z,99.33
2022-11-09T05:55:10.652Z,100.00
2022-11-09T05:58:12.354Z,100.00
2022-11-09T06:01:16.986Z,98.80
2022-11-09T06:04:18.713Z,98.64
2022-11-09T06:07:20.396Z,99.36
2022-11-09T06:10:22.279Z,99.98
2022-11-09T06:13:23.958Z,100.00
2022-11-09T06:16:25.742Z,100.00
2022-11-09T06:19:27.288Z,100.00
2022-11-09T06:22:29.193Z,99.96
2022-11-09T06:25:31.970Z,99.73
2022-11-09T06:28:34.122Z,100.00
2022-11-09T06:31:35.913Z,100.00
2022-11-09T06:34:37.557Z,99.73
2022-11-09T06:37:39.212Z,100.00
2022-11-09T06:40:40.845Z,100.00
2022-11-09T06:43:42.429Z,99.97
2022-11-09T06:46:44.117Z,99.71
2022-11-09T06:49:45.765Z,99.87
2022-11-09T06:52:47.430Z,99.81
2022-11-09T06:55:50.883Z,99.63
2022-11-09T06:58:52.850Z,99.40
2022-11-09T07:01:57.622Z,99.61
2022-11-09T07:05:03.137Z,99.70
2022-11-09T07:08:04.935Z,99.34
2022-11-09T07:11:16.285Z,99.57
2022-11-09T07:14:18.072Z,99.30
2022-11-09T07:17:19.572Z,99.37
2022-11-09T07:20:21.569Z,99.40
2022-11-09T07:23:23.614Z,98.96
2022-11-09T07:26:25.529Z,98.76
2022-11-09T07:29:27.139Z,97.76
2022-11-09T07:33:01.847Z,98.18
2022-11-09T07:35:50.613Z,98.81
2022-11-09T07:38:52.298Z,98.99
2022-11-09T07:41:55.522Z,99.69
2022-11-09T07:44:57.387Z,99.26
2022-11-09T07:48:01.352Z,99.78
2022-11-09T07:51:03.191Z,100.00
2022-11-09T07:54:04.825Z,98.50
2022-11-09T07:57:07.250Z,97.66
2022-11-09T08:00:10.360Z,97.25
2022-11-09T08:03:12.130Z,97.26
2022-11-09T08:06:18.238Z,97.43
2022-11-09T08:09:20.875Z,97.77
2022-11-09T08:12:22.538Z,98.27
2022-11-09T08:15:24.563Z,98.69
2022-11-09T08:18:26.207Z,99.32
2022-11-09T08:21:27.851Z,99.65
2022-11-09T08:24:30.036Z,99.20
2022-11-09T08:27:31.783Z,99.24
2022-11-09T08:30:35.338Z,98.73
2022-11-09T08:33:40.377Z,99.14
2022-11-09T08:36:42.313Z,99.61
2022-11-09T08:39:43.958Z,98.88
2022-11-09T08:42:46.027Z,98.44
2022-11-09T08:45:48.264Z,97.72
2022-11-09T08:48:49.890Z,96.26
2022-11-09T08:51:51.765Z,94.11
2022-11-09T08:54:53.380Z,94.52
2022-11-09T08:57:56.962Z,95.29
2022-11-09T09:00:58.839Z,95.07
2022-11-09T09:04:00.490Z,95.05
2022-11-09T09:07:02.284Z,94.62
2022-11-09T09:10:05.089Z,93.85
2022-11-09T09:13:06.785Z,92.63
2022-11-09T09:16:13.280Z,92.27
2022-11-09T09:19:14.956Z,90.34
2022-11-09T09:22:16.655Z,89.91
2022-11-09T09:25:18.410Z,88.81
2022-11-09T09:28:20.248Z,89.42
2022-11-09T09:31:22.221Z,89.15
2022-11-09T09:34:24.094Z,88.32
2022-11-09T09:37:25.976Z,88.18
2022-11-09T09:40:35.310Z,88.40
2022-11-09T09:43:46.664Z,90.49
2022-11-09T09:47:10.310Z,90.54
2022-11-09T09:50:16.126Z,90.95
2022-11-09T09:53:44.046Z,90.71
2022-11-09T09:56:47.459Z,90.32
2022-11-09T09:59:55.211Z,88.55
2022-11-09T10:02:56.874Z,88.02
2022-11-09T10:06:08.464Z,88.92
2022-11-09T10:09:39.457Z,90.34
2022-11-09T10:13:05.505Z,90.16
2022-11-09T10:16:26.203Z,89.75
2022-11-09T10:19:30.525Z,89.59
2022-11-09T10:22:59.702Z,89.38
2022-11-09T10:26:15.487Z,88.46
2022-11-09T10:29:43.463Z,87.38
2022-11-09T10:32:49.120Z,87.18
2022-11-09T10:36:24.006Z,87.14
2022-11-09T10:39:38.462Z,86.43
2022-11-09T10:42:45.247Z,86.72
2022-11-09T10:45:58.779Z,87.33
2022-11-09T10:49:19.530Z,87.41
2022-11-09T10:52:44.250Z,87.56
2022-11-09T10:56:08.982Z,87.80
2022-11-09T10:59:43.558Z,88.54
2022-11-09T11:02:46.711Z,88.50
2022-11-09T11:05:58.354Z,88.93
2022-11-09T11:09:05.911Z,89.00
2022-11-09T11:12:25.760Z,89.08
2022-11-09T11:15:39.734Z,89.19
2022-11-09T11:18:46.699Z,89.36
2022-11-09T11:22:09.260Z,89.11
2022-11-09T11:25:22.500Z,88.88
2022-11-09T11:28:42.864Z,89.16
2022-11-09T11:31:45.036Z,89.48
2022-11-09T11:35:00.288Z,89.42
2022-11-09T11:38:16.632Z,89.09
2022-11-09T11:41:54.162Z,89.10
2022-11-09T11:45:40.475Z,89.40
2022-11-09T11:48:43.380Z,89.45
2022-11-09T11:52:09.881Z,89.63
2022-11-09T11:55:29.883Z,89.77
2022-11-09T11:59:01.053Z,89.96
2022-11-09T12:02:21.220Z,89.69
2022-11-09T12:05:42.666Z,89.46
2022-11-09T12:09:02.741Z,89.75
2022-11-09T12:12:16.930Z,89.89
2022-11-09T12:15:38.140Z,89.97
2022-11-09T12:18:50.102Z,90.07
2022-11-09T12:21:58.205Z,90.07
2022-11-09T12:25:19.846Z,90.20
2022-11-09T12:28:39.854Z,90.21
2022-11-09T12:32:03.233Z,90.14
2022-11-09T12:35:22.422Z,90.31
2022-11-09T12:38:29.334Z,90.31
2022-11-09T12:41:35.299Z,90.42
2022-11-09T12:45:09.598Z,90.05
2022-11-09T12:48:30.582Z,90.10
2022-11-09T12:51:33.941Z,89.86
2022-11-09T12:54:37.047Z,89.72
2022-11-09T12:57:38.760Z,89.51
2022-11-09T13:00:44.402Z,88.95
2022-11-09T13:03:55.278Z,88.69
2022-11-09T13:07:09.073Z,88.74
2022-11-09T13:10:36.661Z,88.80
2022-11-09T13:13:38.442Z,88.77
2022-11-09T13:16:40.056Z,88.95
2022-11-09T13:19:42.098Z,88.97
2022-11-09T13:22:43.752Z,88.98
2022-11-09T13:25:51.004Z,88.99
2022-11-09T13:29:18.992Z,88.65
2022-11-09T13:32:20.702Z,88.59
2022-11-09T13:35:52.193Z,88.67
2022-11-09T13:39:39.267Z,88.70
2022-11-09T13:42:41.054Z,88.81
2022-11-09T13:45:56.142Z,88.99
2022-11-09T13:48:57.852Z,89.07
2022-11-09T13:51:59.681Z,89.23
2022-11-09T13:55:01.368Z,89.09
2022-11-09T13:58:23.805Z,89.01
2022-11-09T14:01:34.251Z,89.13
2022-11-09T14:04:43.768Z,89.24
2022-11-09T14:07:45.545Z,89.49
2022-11-09T14:11:00.336Z,89.72
2022-11-09T14:14:05.021Z,89.81
2022-11-09T14:17:18.989Z,89.74
2022-11-09T14:20:37.162Z,89.80
2022-11-09T14:23:39.078Z,89.61
2022-11-09T14:26:40.681Z,89.57
2022-11-09T14:29:49.993Z,89.76
2022-11-09T14:32:56.784Z,89.86
2022-11-09T14:36:00.179Z,89.74
2022-11-09T14:39:05.050Z,89.82
2022-11-09T14:42:07.396Z,89.82
2022-11-09T14:45:15.132Z,89.94
2022-11-09T14:48:19.287Z,90.09
2022-11-09T14:51:21.857Z,90.09
2022-11-09T14:54:25.627Z,90.22
2022-11-09T14:57:27.389Z,90.14
2022-11-09T15:00:34.792Z,90.18
2022-11-09T15:03:36.546Z,90.22
2022-11-09T15:06:53.501Z,90.27
2022-11-09T15:10:09.003Z,90.30
2022-11-09T15:13:10.898Z,90.48
2022-11-09T15:16:24.424Z,90.46
2022-11-09T15:19:31.739Z,90.56
2022-11-09T15:22:48.865Z,90.54
2022-11-09T15:25:51.723Z,90.95
2022-11-09T15:28:53.476Z,91.59
2022-11-09T15:32:00.625Z,91.77
2022-11-09T15:35:02.300Z,91.14
2022-11-09T15:38:04.183Z,92.04
2022-11-09T15:41:14.821Z,92.46
2022-11-09T15:44:17.353Z,93.08
2022-11-09T15:47:27.814Z,93.31
2022-11-09T15:50:29.443Z,93.35
2022-11-09T15:53:32.892Z,93.27
2022-11-09T15:56:34.787Z,92.66
2022-11-09T15:59:36.415Z,93.09
2022-11-09T16:02:38.124Z,92.54
2022-11-09T16:05:39.841Z,93.26
2022-11-09T16:08:41.532Z,93.29
2022-11-09T16:11:43.168Z,93.49
2022-11-09T16:14:44.925Z,93.87
2022-11-09T16:17:49.682Z,93.69
2022-11-09T16:20:51.265Z,93.40
2022-11-09T16:23:58.285Z,93.76
2022-11-09T16:27:00.793Z,93.33
2022-11-09T16:30:03.195Z,93.33
2022-11-09T16:33:04.834Z,93.81
2022-11-09T16:36:10.524Z,94.29
2022-11-09T16:39:18.501Z,94.22
2022-11-09T16:42:20.420Z,94.78
2022-11-09T16:45:22.148Z,93.84
2022-11-09T16:48:24.263Z,94.48
2022-11-09T16:51:26.034Z,94.82
2022-11-09T16:54:27.599Z,94.80
2022-11-09T16:57:29.283Z,94.92
2022-11-09T17:00:55.736Z,95.17
2022-11-09T17:03:52.406Z,95.50
2022-11-09T17:06:54.022Z,95.71
2022-11-09T17:09:55.720Z,95.57
2022-11-09T17:12:57.404Z,95.51
2022-11-09T17:16:04.390Z,95.44
2022-11-09T17:19:06.378Z,95.68
2022-11-09T17:22:08.066Z,95.36
2022-11-09T17:25:10.111Z,95.57
2022-11-09T17:28:11.704Z,95.96
2022-11-09T17:31:14.609Z,96.47
2022-11-09T17:34:16.282Z,96.33
2022-11-09T17:37:17.942Z,96.13
2022-11-09T17:40:21.486Z,96.46
2022-11-09T17:43:23.079Z,96.43
2022-11-09T17:46:24.949Z,96.54
2022-11-09T17:49:26.884Z,96.64
2022-11-09T17:52:28.796Z,96.38
2022-11-09T17:55:30.559Z,96.44
2022-11-09T17:58:32.264Z,95.97
2022-11-09T18:01:39.394Z,96.15
2022-11-09T18:04:42.364Z,96.21
2022-11-09T18:07:43.978Z,96.27
2022-11-09T18:10:45.752Z,96.11
2022-11-09T18:13:47.389Z,95.57
2022-11-09T18:16:49.035Z,94.90
2022-11-09T18:19:50.789Z,93.53
2022-11-09T18:22:53.781Z,92.98
2022-11-09T18:25:59.003Z,93.84
2022-11-09T18:29:00.667Z,94.31
2022-11-09T18:32:02.316Z,95.25
2022-11-09T18:35:04.330Z,94.92
2022-11-09T18:38:10.029Z,95.41
2022-11-09T18:41:20.515Z,95.95
2022-11-09T18:44:22.142Z,95.82
2022-11-09T18:47:25.512Z,96.16
2022-11-09T18:50:27.145Z,96.44
2022-11-09T18:53:34.524Z,96.54
2022-11-09T18:56:36.245Z,96.54
2022-11-09T18:59:40.880Z,96.71
2022-11-09T19:02:42.515Z,96.35
2022-11-09T19:05:44.358Z,96.35
2022-11-09T19:09:05.513Z,96.47
2022-11-09T19:12:08.714Z,96.33
2022-11-09T19:15:10.536Z,96.71
2022-11-09T19:18:12.173Z,96.45
2022-11-09T19:21:46.466Z,97.03
2022-11-09T19:24:48.428Z,97.75
2022-11-09T19:27:50.200Z,97.41
2022-11-09T19:30:51.804Z,98.25
2022-11-09T19:33:53.546Z,98.27
2022-11-09T19:36:55.566Z,98.68
2022-11-09T19:39:57.159Z,99.11
2022-11-09T19:42:58.972Z,99.14
2022-11-09T19:46:00.528Z,98.74
2022-11-09T19:49:03.939Z,99.01
2022-11-09T19:52:05.583Z,98.65
2022-11-09T19:55:07.624Z,98.02
2022-11-09T19:58:09.253Z,97.84
2022-11-09T20:01:12.267Z,97.17
2022-11-09T20:04:14.016Z,98.09
2022-11-09T20:07:15.739Z,97.39
2022-11-09T20:10:17.686Z,97.03
2022-11-09T20:13:20.108Z,96.93
2022-11-09T20:16:21.803Z,97.11
2022-11-09T20:19:24.711Z,97.22
2022-11-09T20:22:26.496Z,97.31
2022-11-09T20:25:28.245Z,98.00
2022-11-09T20:28:29.840Z,97.94
2022-11-09T20:31:31.521Z,97.29
2022-11-09T20:34:33.151Z,96.75
2022-11-09T20:37:34.835Z,96.73
2022-11-09T20:40:36.432Z,96.69
2022-11-09T20:43:38.712Z,96.57
2022-11-09T20:46:40.418Z,96.55
2022-11-09T20:49:42.244Z,96.75
2022-11-09T20:52:43.903Z,97.19
2022-11-09T20:55:45.489Z,97.39
2022-11-09T20:58:47.518Z,97.18
2022-11-09T21:01:49.222Z,97.10
2022-11-09T21:04:50.870Z,96.91
2022-11-09T21:07:52.621Z,97.08
2022-11-09T21:10:54.273Z,97.33
2022-11-09T21:13:56.462Z,97.81
2022-11-09T21:16:58.155Z,97.84
2022-11-09T21:19:59.756Z,97.11
2022-11-09T21:23:13.629Z,96.59
2022-11-09T21:26:34.291Z,97.14
2022-11-09T21:29:50.985Z,97.57
2022-11-09T21:32:52.830Z,97.83
2022-11-09T21:35:55.009Z,96.76
2022-11-09T21:38:56.685Z,96.01
2022-11-09T21:41:59.137Z,96.06
2022-11-09T21:45:00.796Z,96.58
2022-11-09T21:48:02.503Z,97.11
2022-11-09T21:51:23.095Z,97.75
2022-11-09T21:54:24.921Z,97.46
2022-11-09T21:57:26.704Z,96.73
2022-11-09T22:00:28.292Z,97.18
2022-11-09T22:03:30.053Z,98.42
2022-11-09T22:06:31.803Z,99.29
2022-11-09T22:09:57.774Z,98.08
2022-11-09T22:13:14.697Z,97.39
2022-11-09T22:16:17.399Z,97.96
2022-11-09T22:19:38.072Z,98.38
2022-11-09T22:22:39.704Z,98.05
2022-11-09T22:25:46.717Z,98.34
2022-11-09T22:28:49.745Z,98.44
2022-11-09T22:31:51.325Z,98.46
2022-11-09T22:34:52.992Z,98.40
2022-11-09T22:37:54.712Z,98.32
2022-11-09T22:40:59.368Z,98.14
2022-11-09T22:44:01.002Z,98.39
2022-11-09T22:47:02.661Z,99.47
2022-11-09T22:50:04.485Z,99.89
2022-11-09T22:53:06.052Z,99.24
2022-11-09T22:56:09.869Z,98.45
2022-11-09T22:59:11.560Z,98.27
2022-11-09T23:02:13.253Z,98.12
2022-11-09T23:05:15.078Z,98.13
2022-11-09T23:08:16.852Z,98.80
2022-11-09T23:11:22.160Z,98.70
2022-11-09T23:14:43.697Z,98.70
2022-11-09T23:18:04.247Z,98.57
2022-11-09T23:21:06.060Z,98.31
2022-11-09T23:24:28.083Z,98.38
2022-11-09T23:27:29.828Z,98.65
2022-11-09T23:30:31.769Z,99.09
2022-11-09T23:33:33.750Z,99.22
2022-11-09T23:36:35.370Z,99.24
2022-11-09T23:39:37.410Z,99.60
2022-11-09T23:42:39.120Z,99.53
2022-11-09T23:45:40.841Z,99.28
2022-11-09T23:48:42.456Z,99.11
2022-11-09T23:51:44.182Z,99.36
2022-11-09T23:54:46.364Z,99.84
2022-11-09T23:57:47.951Z,100.00
